createdAt,value
2018-06-27T00:02:23.577Z,18.10
2018-06-27T00:07:22.027Z,18.10
2018-06-27T00:09:50.903Z,18.20
2018-06-27T00:12:19.699Z,18.30
2018-06-27T00:14:48.790Z,18.30
2018-06-27T00:17:18.029Z,18.20
2018-06-27T00:22:15.500Z,18.20
2018-06-27T00:24:44.375Z,18.20
2018-06-27T00:27:13.139Z,18.20
2018-06-27T00:29:41.968Z,18.30
2018-06-27T00:34:39.836Z,18.20
2018-06-27T00:37:08.620Z,18.20
2018-06-27T00:44:34.488Z,18.20
2018-06-27T00:47:03.307Z,18.20
2018-06-27T00:49:32.343Z,18.20
2018-06-27T00:52:01.301Z,18.10
2018-06-27T00:54:30.145Z,18.10
2018-06-27T00:56:58.935Z,18.00
2018-06-27T01:01:56.515Z,17.90
2018-06-27T01:04:25.267Z,17.90
2018-06-27T01:06:54.495Z,17.80
2018-06-27T01:09:23.251Z,17.80
2018-06-27T01:11:52.070Z,17.90
2018-06-27T01:14:20.939Z,17.90
2018-06-27T01:16:49.703Z,17.90
2018-06-27T01:19:18.728Z,17.90
2018-06-27T01:21:48.092Z,17.90
2018-06-27T01:24:16.865Z,17.90
2018-06-27T01:26:45.707Z,18.00
2018-06-27T01:29:14.629Z,18.00
2018-06-27T01:31:43.406Z,18.00
2018-06-27T01:34:12.189Z,18.10
2018-06-27T01:36:40.972Z,18.00
2018-06-27T01:39:10.455Z,18.10
2018-06-27T01:41:39.671Z,18.10
2018-06-27T01:44:08.724Z,18.10
2018-06-27T01:46:37.560Z,18.10
2018-06-27T01:49:06.783Z,18.10
2018-06-27T01:54:04.172Z,18.00
2018-06-27T01:56:32.976Z,18.00
2018-06-27T01:59:01.701Z,18.00
2018-06-27T02:01:30.527Z,17.90
2018-06-27T02:06:27.881Z,17.80
2018-06-27T02:08:56.763Z,17.90
2018-06-27T02:11:25.553Z,17.80
2018-06-27T02:13:54.315Z,17.90
2018-06-27T02:16:23.187Z,17.90
2018-06-27T02:18:52.062Z,17.80
2018-06-27T02:21:21.386Z,17.90
2018-06-27T02:23:50.275Z,17.90
2018-06-27T02:26:19.053Z,17.90
2018-06-27T02:28:47.798Z,17.90
2018-06-27T02:31:17.195Z,17.90
2018-06-27T02:33:46.075Z,17.90
2018-06-27T02:36:14.869Z,17.80
2018-06-27T02:38:43.829Z,17.80
2018-06-27T02:41:12.683Z,17.80
2018-06-27T02:43:41.430Z,17.80
2018-06-27T02:46:10.203Z,17.80
2018-06-27T02:48:39.065Z,17.80
2018-06-27T02:51:07.906Z,17.70
2018-06-27T02:53:38.082Z,17.70
2018-06-27T02:56:08.414Z,17.70
2018-06-27T02:58:37.301Z,17.60
2018-06-27T03:01:06.110Z,17.60
2018-06-27T03:03:34.956Z,17.60
2018-06-27T03:08:32.329Z,17.60
2018-06-27T03:11:01.372Z,17.60
2018-06-27T03:13:30.158Z,17.60
2018-06-27T03:15:59.591Z,17.50
2018-06-27T03:18:28.345Z,17.50
2018-06-27T03:20:57.543Z,17.60
2018-06-27T03:23:26.356Z,17.60
2018-06-27T03:25:55.230Z,17.70
2018-06-27T03:28:24.045Z,17.70
2018-06-27T03:30:52.883Z,17.70
2018-06-27T03:33:21.653Z,17.60
2018-06-27T03:40:47.496Z,17.70
2018-06-27T03:43:16.259Z,17.80
2018-06-27T03:45:45.196Z,17.70
2018-06-27T03:50:42.608Z,17.70
2018-06-27T03:53:11.392Z,17.70
2018-06-27T03:55:40.330Z,17.70
2018-06-27T03:58:09.142Z,17.70
2018-06-27T04:00:37.999Z,17.60
2018-06-27T04:03:06.776Z,17.60
2018-06-27T04:05:35.572Z,17.50
2018-06-27T04:08:04.365Z,17.50
2018-06-27T04:10:33.107Z,17.60
2018-06-27T04:13:01.984Z,17.60
2018-06-27T04:15:31.039Z,17.70
2018-06-27T04:17:59.876Z,17.70
2018-06-27T04:20:28.660Z,17.80
2018-06-27T04:22:57.554Z,17.80
2018-06-27T04:25:26.423Z,17.80
2018-06-27T04:27:55.183Z,17.90
2018-06-27T04:30:24.005Z,17.90
2018-06-27T04:35:21.340Z,17.90
2018-06-27T04:37:50.179Z,17.90
2018-06-27T04:40:19.771Z,18.00
2018-06-27T04:45:17.126Z,18.00
2018-06-27T04:47:45.869Z,18.00
2018-06-27T04:50:14.653Z,18.00
2018-06-27T04:52:44.630Z,18.00
2018-06-27T04:55:13.535Z,18.10
2018-06-27T05:00:11.015Z,18.10
2018-06-27T05:05:08.614Z,18.20
2018-06-27T05:07:37.452Z,18.30
2018-06-27T05:10:06.299Z,18.30
2018-06-27T05:12:35.202Z,18.20
2018-06-27T05:15:04.536Z,18.30
2018-06-27T05:17:33.364Z,18.30
2018-06-27T05:20:02.141Z,18.40
2018-06-27T05:22:31.082Z,18.40
2018-06-27T05:25:00.007Z,18.30
2018-06-27T05:27:28.870Z,18.40
2018-06-27T05:29:57.702Z,18.40
2018-06-27T05:32:26.684Z,18.30
2018-06-27T05:34:55.808Z,18.30
2018-06-27T05:37:24.754Z,18.30
2018-06-27T05:39:53.638Z,18.40
2018-06-27T05:42:22.646Z,18.40
2018-06-27T05:44:51.493Z,18.50
2018-06-27T05:47:20.304Z,18.50
2018-06-27T05:49:49.137Z,18.50
2018-06-27T05:54:50.231Z,18.40
2018-06-27T05:57:19.045Z,18.40
2018-06-27T05:59:47.870Z,18.50
2018-06-27T06:02:16.730Z,18.50
2018-06-27T06:04:45.548Z,18.50
2018-06-27T06:07:14.381Z,18.50
2018-06-27T06:09:43.185Z,18.60
2018-06-27T06:12:12.028Z,18.60
2018-06-27T06:17:09.334Z,18.60
2018-06-27T06:19:38.215Z,18.70
2018-06-27T06:22:07.012Z,18.70
2018-06-27T06:24:41.754Z,18.70
2018-06-27T06:27:11.444Z,18.80
2018-06-27T06:29:40.344Z,18.80
2018-06-27T06:32:09.222Z,18.80
2018-06-27T06:34:38.486Z,18.80
2018-06-27T06:37:07.287Z,18.80
2018-06-27T06:39:36.070Z,18.90
2018-06-27T06:42:05.232Z,18.90
2018-06-27T06:44:34.205Z,18.90
2018-06-27T06:47:04.016Z,18.90
2018-06-27T06:49:32.811Z,19.00
2018-06-27T06:52:01.769Z,19.00
2018-06-27T06:54:30.587Z,19.00
2018-06-27T06:57:00.122Z,19.00
2018-06-27T06:59:28.886Z,19.00
2018-06-27T07:01:57.748Z,19.00
2018-06-27T07:04:26.644Z,18.90
2018-06-27T07:06:55.465Z,18.90
2018-06-27T07:09:24.262Z,19.00
2018-06-27T07:11:53.103Z,19.00
2018-06-27T07:14:21.848Z,19.10
2018-06-27T07:16:50.636Z,19.10
2018-06-27T07:19:19.528Z,19.10
2018-06-27T07:21:48.372Z,19.10
2018-06-27T07:24:17.248Z,19.20
2018-06-27T07:26:46.046Z,19.20
2018-06-27T07:29:15.186Z,19.20
2018-06-27T07:31:43.980Z,19.20
2018-06-27T07:34:12.780Z,19.20
2018-06-27T07:36:41.652Z,19.20
2018-06-27T07:39:11.687Z,19.30
2018-06-27T07:41:40.741Z,19.30
2018-06-27T07:44:09.490Z,19.40
2018-06-27T07:46:38.284Z,19.50
2018-06-27T07:51:36.546Z,19.70
2018-06-27T07:54:06.028Z,19.70
2018-06-27T07:59:03.347Z,19.80
2018-06-27T08:01:32.821Z,19.80
2018-06-27T08:04:02.351Z,19.80
2018-06-27T08:06:36.377Z,19.80
2018-06-27T08:09:07.872Z,19.80
2018-06-27T08:11:37.265Z,19.80
2018-06-27T08:14:07.317Z,19.80
2018-06-27T08:16:36.318Z,19.80
2018-06-27T08:19:05.089Z,19.90
2018-06-27T08:21:33.828Z,20.00
2018-06-27T08:26:32.103Z,20.10
2018-06-27T08:29:00.961Z,20.00
2018-06-27T08:31:30.192Z,20.10
2018-06-27T08:33:59.054Z,20.20
2018-06-27T08:36:27.987Z,20.20
2018-06-27T08:38:56.812Z,20.30
2018-06-27T08:41:25.851Z,20.30
2018-06-27T08:43:54.753Z,20.40
2018-06-27T08:46:23.634Z,20.40
2018-06-27T08:48:52.526Z,20.50
2018-06-27T08:51:22.419Z,20.50
2018-06-27T08:53:51.293Z,20.50
2018-06-27T08:56:20.087Z,20.60
2018-06-27T08:58:49.252Z,20.60
2018-06-27T09:01:18.568Z,20.60
2018-06-27T09:03:47.431Z,20.60
2018-06-27T09:11:13.731Z,20.70
2018-06-27T09:13:42.855Z,20.70
2018-06-27T09:16:11.808Z,20.80
2018-06-27T09:18:40.745Z,20.80
2018-06-27T09:21:09.512Z,20.90
2018-06-27T09:23:38.435Z,21.00
2018-06-27T09:26:07.240Z,21.00
2018-06-27T09:28:36.163Z,21.00
2018-06-27T09:31:06.179Z,21.10
2018-06-27T09:33:35.444Z,21.10
2018-06-27T09:36:04.291Z,21.10
2018-06-27T09:38:33.638Z,21.10
2018-06-27T09:41:02.753Z,21.10
2018-06-27T09:43:31.777Z,21.20
2018-06-27T09:46:00.937Z,21.20
2018-06-27T09:48:29.787Z,21.30
2018-06-27T09:50:58.655Z,21.20
2018-06-27T09:53:27.858Z,21.30
2018-06-27T09:55:56.734Z,21.30
2018-06-27T09:58:25.681Z,21.30
2018-06-27T10:00:54.664Z,21.40
2018-06-27T10:03:23.953Z,21.50
2018-06-27T10:05:52.820Z,21.60
2018-06-27T10:08:22.014Z,21.70
2018-06-27T10:10:50.799Z,21.60
2018-06-27T10:13:19.675Z,21.60
2018-06-27T10:15:48.462Z,21.70
2018-06-27T10:20:46.228Z,21.70
2018-06-27T10:23:15.003Z,21.70
2018-06-27T10:25:43.960Z,21.70
2018-06-27T10:28:13.619Z,21.70
2018-06-27T10:33:13.123Z,21.90
2018-06-27T10:35:42.017Z,21.90
2018-06-27T10:38:10.767Z,22.00
2018-06-27T10:40:40.272Z,22.10
2018-06-27T10:43:09.197Z,22.10
2018-06-27T10:45:38.137Z,22.10
2018-06-27T10:48:06.906Z,22.10
2018-06-27T10:50:35.734Z,22.10
2018-06-27T10:53:04.539Z,22.10
2018-06-27T10:55:33.960Z,22.20
2018-06-27T10:58:02.929Z,22.30
2018-06-27T11:00:32.524Z,22.30
2018-06-27T11:03:01.320Z,22.20
2018-06-27T11:05:30.157Z,22.20
2018-06-27T11:07:59.497Z,22.20
2018-06-27T11:12:56.766Z,22.30
2018-06-27T11:15:25.567Z,22.30
2018-06-27T11:17:55.012Z,22.30
2018-06-27T11:20:24.004Z,22.40
2018-06-27T11:22:53.258Z,22.40
2018-06-27T11:25:22.298Z,22.40
2018-06-27T11:27:51.418Z,22.40
2018-06-27T11:30:20.299Z,22.40
2018-06-27T11:32:49.492Z,22.30
2018-06-27T11:35:18.485Z,22.40
2018-06-27T11:37:47.576Z,22.40
2018-06-27T11:40:16.358Z,22.50
2018-06-27T11:42:45.191Z,22.60
2018-06-27T11:45:14.042Z,22.70
2018-06-27T11:50:12.251Z,22.70
2018-06-27T11:52:41.242Z,22.70
2018-06-27T11:55:11.074Z,22.80
2018-06-27T12:00:09.834Z,23.00
2018-06-27T12:02:39.312Z,23.10
2018-06-27T12:05:09.167Z,23.10
2018-06-27T12:07:38.238Z,23.10
2018-06-27T12:10:07.212Z,23.10
2018-06-27T12:12:37.053Z,23.10
2018-06-27T12:15:06.283Z,23.10
2018-06-27T12:17:35.045Z,23.00
2018-06-27T12:20:04.919Z,23.10
2018-06-27T12:22:33.964Z,23.20
2018-06-27T12:25:02.804Z,23.30
2018-06-27T12:27:31.576Z,23.30
2018-06-27T12:32:29.748Z,23.50
2018-06-27T12:34:59.447Z,23.50
2018-06-27T12:37:28.409Z,23.40
2018-06-27T12:39:57.225Z,23.30
2018-06-27T12:42:26.193Z,23.20
2018-06-27T12:44:55.184Z,23.20
2018-06-27T12:47:23.932Z,23.10
2018-06-27T12:52:21.489Z,23.10
2018-06-27T12:57:22.632Z,23.00
2018-06-27T12:59:52.474Z,23.00
2018-06-27T13:02:21.301Z,23.00
2018-06-27T13:04:50.078Z,23.00
2018-06-27T13:07:18.899Z,23.00
2018-06-27T13:09:47.843Z,23.10
2018-06-27T13:12:16.757Z,23.10
2018-06-27T13:14:45.795Z,23.20
2018-06-27T13:17:14.861Z,23.20
2018-06-27T13:19:43.798Z,23.30
2018-06-27T13:22:13.036Z,23.30
2018-06-27T13:24:41.909Z,23.30
2018-06-27T13:27:10.900Z,23.30
2018-06-27T13:29:39.891Z,23.30
2018-06-27T13:32:09.063Z,23.40
2018-06-27T13:34:38.140Z,23.50
2018-06-27T13:37:07.279Z,23.60
2018-06-27T13:39:36.155Z,23.60
2018-06-27T13:42:05.020Z,23.70
2018-06-27T13:44:33.907Z,23.60
2018-06-27T13:47:02.916Z,23.60
2018-06-27T13:49:32.036Z,23.60
2018-06-27T13:52:01.805Z,23.50
2018-06-27T13:54:30.844Z,23.60
2018-06-27T13:56:59.795Z,23.60
2018-06-27T13:59:29.512Z,23.60
2018-06-27T14:01:58.324Z,23.60
2018-06-27T14:04:27.177Z,23.70
2018-06-27T14:06:56.024Z,23.70
2018-06-27T14:09:25.012Z,23.70
2018-06-27T14:11:53.936Z,23.70
2018-06-27T14:14:23.249Z,23.70
2018-06-27T14:16:52.253Z,23.70
2018-06-27T14:19:21.254Z,23.80
2018-06-27T14:21:50.137Z,23.90
2018-06-27T14:24:19.005Z,24.00
2018-06-27T14:26:47.953Z,24.10
2018-06-27T14:29:16.851Z,24.10
2018-06-27T14:31:46.677Z,24.20
2018-06-27T14:34:15.825Z,24.20
2018-06-27T14:36:44.698Z,24.20
2018-06-27T14:39:13.618Z,24.20
2018-06-27T14:41:42.817Z,24.20
2018-06-27T14:44:11.607Z,24.20
2018-06-27T14:46:40.498Z,24.30
2018-06-27T14:49:10.019Z,24.30
2018-06-27T14:51:38.899Z,24.30
2018-06-27T14:54:08.101Z,24.30
2018-06-27T14:56:37.072Z,24.30
2018-06-27T14:59:05.904Z,24.20
2018-06-27T15:01:34.857Z,24.20
2018-06-27T15:04:03.785Z,24.20
2018-06-27T15:06:32.679Z,24.20
2018-06-27T15:09:01.934Z,24.20
2018-06-27T15:11:30.871Z,24.30
2018-06-27T15:13:59.816Z,24.30
2018-06-27T15:16:28.895Z,24.30
2018-06-27T15:18:57.857Z,24.30
2018-06-27T15:21:26.741Z,24.30
2018-06-27T15:23:55.904Z,24.30
2018-06-27T15:26:24.799Z,24.30
2018-06-27T15:28:53.878Z,24.30
2018-06-27T15:31:22.970Z,24.30
2018-06-27T15:33:52.379Z,24.30
2018-06-27T15:36:21.310Z,24.30
2018-06-27T15:38:50.272Z,24.30
2018-06-27T15:43:48.925Z,24.40
2018-06-27T15:46:18.154Z,24.40
2018-06-27T15:48:47.205Z,24.40
2018-06-27T15:51:16.107Z,24.30
2018-06-27T15:53:45.360Z,24.30
2018-06-27T15:56:14.341Z,24.20
2018-06-27T15:58:43.343Z,24.20
2018-06-27T16:01:12.164Z,24.20
2018-06-27T16:03:41.036Z,24.30
2018-06-27T16:06:09.958Z,24.30
2018-06-27T16:08:39.198Z,24.30
2018-06-27T16:11:08.125Z,24.30
2018-06-27T16:13:37.104Z,24.30
2018-06-27T16:16:06.108Z,24.20
2018-06-27T16:18:35.050Z,24.30
2018-06-27T16:21:04.435Z,24.30
2018-06-27T16:23:33.215Z,24.40
2018-06-27T16:26:02.025Z,24.40
2018-06-27T16:28:30.876Z,24.40
2018-06-27T16:30:59.994Z,24.40
2018-06-27T16:33:28.847Z,24.50
2018-06-27T16:35:58.032Z,24.50
2018-06-27T16:38:27.039Z,24.60
2018-06-27T16:40:55.874Z,24.70
2018-06-27T16:43:24.692Z,24.80
2018-06-27T16:45:53.528Z,24.80
2018-06-27T16:48:22.292Z,24.80
2018-06-27T16:50:51.128Z,24.90
2018-06-27T16:53:19.885Z,24.90
2018-06-27T16:55:48.975Z,25.00
2018-06-27T16:58:17.936Z,25.00
2018-06-27T17:00:48.234Z,24.90
2018-06-27T17:03:17.039Z,24.90
2018-06-27T17:08:14.601Z,24.90
2018-06-27T17:10:43.492Z,25.20
2018-06-27T17:13:13.751Z,25.50
2018-06-27T17:15:42.871Z,25.50
2018-06-27T17:18:11.788Z,25.30
2018-06-27T17:20:40.602Z,25.30
2018-06-27T17:23:09.658Z,25.20
2018-06-27T17:25:38.515Z,25.10
2018-06-27T17:28:07.339Z,25.00
2018-06-27T17:30:36.197Z,24.90
2018-06-27T17:33:05.086Z,24.80
2018-06-27T17:35:34.014Z,24.80
2018-06-27T17:38:03.009Z,24.70
2018-06-27T17:40:31.960Z,24.70
2018-06-27T17:43:00.859Z,24.60
2018-06-27T17:45:29.914Z,24.60
2018-06-27T17:47:58.763Z,24.60
2018-06-27T17:50:31.384Z,24.60
2018-06-27T17:53:00.240Z,24.60
2018-06-27T17:58:04.185Z,24.60
2018-06-27T18:00:33.207Z,24.50
2018-06-27T18:03:02.342Z,24.60
2018-06-27T18:05:31.149Z,24.50
2018-06-27T18:07:59.991Z,24.50
2018-06-27T18:10:28.800Z,24.60
2018-06-27T18:12:57.622Z,24.60
2018-06-27T18:15:26.457Z,24.60
2018-06-27T18:17:55.291Z,24.60
2018-06-27T18:20:24.155Z,24.50
2018-06-27T18:22:53.647Z,24.50
2018-06-27T18:27:50.994Z,24.50
2018-06-27T18:30:19.861Z,24.60
2018-06-27T18:32:48.727Z,24.60
2018-06-27T18:35:17.612Z,25.00
2018-06-27T18:37:46.474Z,25.50
2018-06-27T18:40:15.365Z,25.90
2018-06-27T18:42:47.091Z,26.30
2018-06-27T18:45:15.901Z,26.20
2018-06-27T18:52:41.932Z,25.20
2018-06-27T18:55:10.728Z,24.90
2018-06-27T18:57:39.666Z,24.80
2018-06-27T19:02:38.524Z,24.60
2018-06-27T19:05:07.563Z,24.50
2018-06-27T19:10:05.252Z,24.30
2018-06-27T19:12:34.122Z,24.30
2018-06-27T19:15:03.012Z,24.20
2018-06-27T19:17:32.036Z,24.10
2018-06-27T19:20:01.091Z,24.10
2018-06-27T19:22:29.866Z,24.00
2018-06-27T19:24:58.713Z,24.00
2018-06-27T19:27:27.507Z,23.90
2018-06-27T19:29:56.433Z,23.90
2018-06-27T19:32:25.193Z,23.80
2018-06-27T19:34:54.080Z,23.80
2018-06-27T19:37:22.897Z,23.70
2018-06-27T19:39:51.745Z,23.70
2018-06-27T19:42:20.582Z,23.70
2018-06-27T19:44:49.394Z,23.60
2018-06-27T19:47:18.172Z,23.60
2018-06-27T19:49:47.123Z,23.50
2018-06-27T19:52:15.954Z,23.50
2018-06-27T19:54:44.779Z,23.50
2018-06-27T19:57:13.787Z,23.40
2018-06-27T19:59:43.367Z,23.40
2018-06-27T20:02:12.402Z,23.30
2018-06-27T20:04:41.168Z,23.20
2018-06-27T20:07:10.301Z,23.10
2018-06-27T20:12:07.733Z,23.00
2018-06-27T20:14:37.132Z,23.00
2018-06-27T20:17:06.006Z,23.00
2018-06-27T20:19:35.625Z,23.00
2018-06-27T20:22:04.658Z,23.00
2018-06-27T20:24:33.404Z,23.00
2018-06-27T20:27:02.345Z,23.00
2018-06-27T20:29:31.260Z,22.90
2018-06-27T20:32:03.229Z,22.90
2018-06-27T20:34:33.707Z,22.80
2018-06-27T20:37:02.728Z,22.80
2018-06-27T20:39:31.554Z,22.70
2018-06-27T20:42:00.332Z,22.70
2018-06-27T20:44:29.190Z,22.60
2018-06-27T20:46:57.985Z,22.60
2018-06-27T20:49:26.724Z,22.60
2018-06-27T20:54:24.089Z,22.50
2018-06-27T20:56:52.850Z,22.50
2018-06-27T20:59:21.739Z,22.50
2018-06-27T21:01:50.540Z,22.60
2018-06-27T21:04:19.452Z,22.50
2018-06-27T21:06:49.560Z,22.50
2018-06-27T21:09:19.026Z,22.40
2018-06-27T21:11:47.850Z,22.30
2018-06-27T21:14:16.630Z,22.30
2018-06-27T21:16:45.496Z,22.30
2018-06-27T21:19:14.920Z,22.10
2018-06-27T21:21:43.820Z,22.10
2018-06-27T21:24:12.750Z,22.10
2018-06-27T21:26:41.589Z,22.20
2018-06-27T21:29:10.430Z,22.20
2018-06-27T21:31:39.304Z,22.10
2018-06-27T21:34:08.182Z,22.10
2018-06-27T21:36:37.003Z,22.10
2018-06-27T21:39:07.878Z,22.10
2018-06-27T21:41:36.702Z,22.00
2018-06-27T21:44:05.771Z,22.00
2018-06-27T21:46:34.553Z,22.00
2018-06-27T21:49:03.441Z,22.00
2018-06-27T21:51:32.194Z,22.00
2018-06-27T21:58:58.111Z,21.90
2018-06-27T22:01:27.067Z,21.90
2018-06-27T22:03:55.943Z,21.90
2018-06-27T22:06:24.772Z,21.90
2018-06-27T22:08:53.546Z,21.90
2018-06-27T22:11:22.323Z,21.80
2018-06-27T22:13:51.097Z,21.70
2018-06-27T22:16:19.961Z,21.70
2018-06-27T22:18:49.009Z,21.60
2018-06-27T22:21:17.921Z,21.60
2018-06-27T22:23:48.293Z,21.60
2018-06-27T22:26:17.040Z,21.60
2018-06-27T22:28:45.809Z,21.60
2018-06-27T22:31:14.659Z,21.60
2018-06-27T22:33:43.424Z,21.60
2018-06-27T22:36:12.187Z,21.50
2018-06-27T22:38:40.967Z,21.40
2018-06-27T22:41:09.725Z,21.40
2018-06-27T22:43:38.526Z,21.40
2018-06-27T22:46:07.370Z,21.40
2018-06-27T22:48:36.233Z,21.30
2018-06-27T22:51:05.125Z,21.20
2018-06-27T22:53:33.922Z,21.20
2018-06-27T22:56:02.686Z,21.30
2018-06-27T22:58:31.472Z,21.30
2018-06-27T23:01:00.236Z,21.30
2018-06-27T23:03:29.117Z,21.20
2018-06-27T23:05:57.891Z,21.10
2018-06-27T23:08:26.661Z,21.10
2018-06-27T23:10:55.409Z,21.00
2018-06-27T23:13:24.345Z,21.00
2018-06-27T23:15:53.181Z,21.10
2018-06-27T23:18:22.048Z,21.00
2018-06-27T23:23:19.338Z,21.10
2018-06-27T23:25:48.177Z,21.00
2018-06-27T23:28:17.026Z,21.00
2018-06-27T23:30:46.373Z,21.00
2018-06-27T23:33:15.113Z,21.00
2018-06-27T23:35:43.965Z,20.90
2018-06-27T23:38:12.886Z,20.90
2018-06-27T23:40:41.746Z,20.70
2018-06-27T23:43:10.589Z,20.70
2018-06-27T23:45:39.564Z,20.70
2018-06-27T23:50:36.887Z,20.80
2018-06-27T23:53:05.674Z,20.80
2018-06-27T23:55:34.776Z,20.80
2018-06-27T23:58:03.581Z,20.80
